EA1FHR
43.28.72N 005.26.41W
IN73GL aprs.fi
zuletzt gehoert:
2022-11-27T16:22:40Z
zuerst gehoert:
2020-08-11T06:00:09Z

APRS IN73GL, 2 Stunde(n), EA1FHR [17:26:06, 0s].
EA1FHR 43.28.72N 005.26.41WIN73GL 0.583km 336°NNW16:22:40ZMMDVM MMDVM HS Hat 439.1500/439.1500 CC1
EA1HWD 43.28.96N 005.26.30WIN73GL 0.981km 356°N16:22:56ZMMDVM MMDVM HS Hat 434.2500/434.2500 CC1
EA1JW 43.31.35N 005.28.83WIN73GM 6.426km 327°NNW16:24:01ZMMDVM MMDVM HS Hat 436.5000/436.5000 CC1(3EA1JW-3)
EB1GEM 43.30.00N 005.36.07WIN73EM 13.527km 283°WNW16:12:18ZWX3in1Plus2.0 U=13.3V,T=??.?C/??.?F(3EB1GEM-3)
EA1JBE 43.30.90N 005.16.15WIN73IM 14.321km 71°ENE16:24:27ZMAIN QTH http://qrz.com/db/ea1jbe(3EA1JBE-1)
MAIN QTH http://qrz.com/db/ea1jbe(2EA1JBE-13)
EA4ACU 43.29.56N 005.38.92WIN73EL 17.183km 277°W16:25:02ZMMDVM MMDVM HS Hat 432.7000/432.7000 CC1(3EA4ACU-1)
EA1FLQ 43.22.00N 005.36.35WIN73EI 18.092km 229°SW16:22:53ZMMDVM DVMega 430.9750/430.9750 CC1
EA1JBD 43.32.24N 005.38.83WIN73EM 18.325km 293°WNW16:24:13ZMMDVM MMDVM HS Hat 430.4000/430.4000 CC1(3EA1JBD-1)
ED1ZAS 43.27.52N 005.40.17WIN73DL 18.813km 265°W16:22:10ZRD985 438.2250/430.6250 CC1
ED1ZAE 43.27.99N 005.40.54WIN73DL 19.253km 268°W16:22:51Z400 M. PICO SAN MARTIN (GIJON) 13.0V,12.5C(3ED1ZAE-3)
EA1DZR 43.31.48N 005.40.00WIN73DM 19.343km 287°WNW16:24:08ZMMDVM MMDVM HS Hat 432.2000/432.2000 CC2(3EA1DZR-2)
MMDVM DVMega 431.1000/431.1000 CC1(2EA1DZR-1)
MMDVM DV ADER 434.3500/434.3500 CC1(2EA1DZR-4)
EA1FFA 43.31.53N 005.40.64WIN73DM 20.186km 287°WNW16:24:29ZMMDVM MMDVM HS Hat 438.8000/438.8000 CC1(3EA1FFA-1)
EA1IEJ 43.31.81N 005.40.64WIN73DM 20.339km 288°WNW16:24:16ZMMDVM DMO 222.3400/222.3400 CC1(3EA1IEJ-11)
MMDVM MMDVM HS Hat 438.8500/438.8500 CC6(2EA1IEJ-1)
EB1EHT 43.32.47N 005.40.40WIN73DM 20.453km 292°WNW16:25:33Z440 MMDVM Voice 433.55500MHz +0.0000MHz, APRS for DMRGateway(3EB1EHT-D)
MMDVM MMDVM HS Hat 433.5550/433.5550 CC2(2EB1EHT-1)
EA1GNL 43.21.59N 005.39.00WIN73EI 21.329km 234°SW16:24:03ZMMDVM MMDVM HS 436.5000/436.5000 CC1(3EA1GNL-1)
LEEL 43.32.98N 005.41.71WIN73DN 22.437km 292°WNW16:00:03ZHelipuerto de El Musel: LEAS 271500Z 30011KT 260V330 9999 -RA FEW058 SCT067 BKN080 13/12 Q1018 NOSIG=
EB1TK 43.32.22N 005.42.32WIN73DM 22.720km 288°WNW16:25:17ZWind 220°/006kn, Böen bis 014kn, Temp 13.33c, Regen 0.5mm, letzte 24h 1.5mm, seit 0h 1.5mm, Baro 1021.5h, Hum: 90%(3EB1TK-13)
EA1AQK 43.16.49N 005.35.99WIN73EG 25.718km 211°SSW16:24:16ZMMDVM MMDVM HS Hat 439.8500/439.8500 CC1(3EA1AQK-1)
EA1IPU 43.26.21N 005.46.62WIN73CK 27.709km 262°W16:24:10ZMMDVM MMDVM HS Hat 439.8000/439.8000 CC1(3EA1IPU-1)
EA1ABW 43.24.77N 005.47.77WIN73CJ 29.750km 257°WSW16:23:46ZMMDVM MMDVM HS Hat 439.8250/439.8250 CC1(3EA1ABW-2)
ED1ZBF 43.19.16N 005.06.74WIN73KH 31.362km 123°ESE16:22:14ZRD625 438.4750/430.8750 CC1
LEMR 43.25.83N 005.49.60WIN73CK 31.796km 261°W16:00:03ZAerodromo de la Morgal (123.500MHz): LEAS 271500Z 30011KT 260V330 9999 -RA FEW058 SCT067 BKN080 13/12 Q1018 NOSIG=
LEGM 43.26.15N 005.49.84WIN73CK 32.014km 263°W16:00:03ZHelipuerto de La Morgal (123.500MHz): LEAS 271500Z 30011KT 260V330 9999 -RA FEW058 SCT067 BKN080 13/12 Q1018 NOSIG=
EA1AXV 43.37.36N 005.47.23WIN73CO 32.688km 301°WNW16:21:34Zop.maria isabel - Luanco /Asturias {UIV32}
LEHU 43.22.63N 005.49.57WIN73CJ 33.191km 251°WSW16:00:03ZHelipuerto del HUCA: LEAS 271500Z 30011KT 260V330 9999 -RA FEW058 SCT067 BKN080 13/12 Q1018 NOSIG=
EA1JBU 43.21.85N 005.51.13WIN73BI 35.655km 250°WSW16:00:05ZEA1JBU(3EA1JBU-1)
33D00 43.21.63N 005.51.13WIN73BI 35.785km 250°WSW16:01:42Z33-D-00 Protección Civil REMER / Delegación del Gobierno en Asturias
EA1JAY 43.21.54N 005.51.34WIN73BI 36.121km 249°WSW16:00:04ZEA1JAY(3EA1JAY-2)
434.525MHz Nodo TETRA DMO(2EA1JAY-4)
EA1L 43.20.38N 005.51.13WIN73BI 36.675km 246°WSW16:15:03ZWind 150°/000kn, Böen bis 000kn, Temp 12.22c, Regen 0.5mm, letzte 24h 1.0mm, seit 0h 1.0mm, Baro 1017.3h, Hum: 94%(3EA1L-13)
ea1l@ure.es V=13.2V(2EA1L)
ED1ZAU 43.23.04N 005.52.75WIN73BJ 37.052km 255°WSW16:22:10ZRD625 438.5000/430.9000 CC1
EA1HJA 43.21.47N 005.52.09WIN73BI 37.106km 250°WSW16:24:07Z IN73FL WX3IN1+ 2.0 - V=13.3V,TX TEMP=23.8C(3EA1HJA-2)
IN73FL WX3IN1+ 2.0 - V=13.2V,TX TEMP=42.9C(2EA1HJA)
EA1HWX 43.19.28N 005.50.98WIN73BH 37.370km 243°WSW16:24:33ZDMO - UHF 439.7250/431.0000 CC11(3EA1HWX-2)
MMDVM DMO 222.3400/222.3400 CC1(2EA1HWX-10)
EA1IMW 43.14.36N 005.46.93WIN73CF 38.164km 227°SW16:24:11ZGRUPO RADIO GALENA (GRG) 430.4500/430.4500 CC1(3EA1IMW-1)
EA1AHA 43.32.72N 005.54.38WIN73BN 38.638km 282°WNW16:03:01ZMMDVM MMDVM HS 433.5000/433.5000 CC1
Wind 315°/003kn, Böen bis 003kn, Temp 13.89c, Regen 0.3mm, letzte 24h 4.1mm, seit 0h 4.1mm, Baro 1020.0h, Hum: 81%(2EA1AHA-13)
EB1DGC 43.12.60N 005.45.59WIN73CF 39.254km 222°SW16:22:42ZMMDVM MMDVM HS Hat 433.4500/433.4500 CC1
ED1ZAY 43.29.47N 005.56.54WIN73AL 40.789km 273°W16:22:15ZRD625 438.3000/430.7000 CC1
EA1DZL 43.33.56N 005.55.78WIN73AN 40.807km 284°WNW16:25:34ZMMDVM MMDVM HS Hat 438.8000/438.8000 CC1(3EA1DZL-1)
EB1FE 43.19.20N 005.54.00WIN73BH 41.097km 246°WSW15:46:14ZMMDVM MMDVM HS Hat 430.4000/430.4000 CC1(3EB1FE-1)
EA1JBL 43.12.28N 005.47.42WIN73CE 41.348km 224°SW16:22:54ZMMDVM DVMega 435.3000/435.3000 CC1
ED1ZAD 43.07.90N 005.38.52WIN73ED 41.478km 204°SSW16:18:58ZED1ZAD-3 APRS Digi/Igate(3ED1ZAD-3)
EC1AE 43.32.99N 005.59.40WIN73AN 45.350km 281°W16:23:10Z`_%(3EC1AE-9)
EA1RCG 43.09.45N 005.49.78WIN73CD 47.364km 222°SW16:24:04ZGRUPO RADIO GALENA (GRG) 430.4500/430.4500 CC1(3EA1RCG-3)

aprs.pl 5.0.011w DL3EL © 2006-2021 [7795097]